createdAt,value
2019-03-06T00:03:16.289Z,11.27
2019-03-06T00:08:24.447Z,11.80
2019-03-06T00:13:30.858Z,12.87
2019-03-06T00:18:37.129Z,10.40
2019-03-06T00:23:43.873Z,16.37
2019-03-06T00:28:50.017Z,12.97
2019-03-06T00:33:58.010Z,13.60
2019-03-06T00:39:07.344Z,10.90
2019-03-06T00:44:15.317Z,11.93
2019-03-06T00:49:22.097Z,13.70
2019-03-06T00:54:31.534Z,11.03
2019-03-06T00:59:38.873Z,15.77
2019-03-06T01:04:45.653Z,16.03
2019-03-06T01:09:52.507Z,12.77
2019-03-06T01:14:59.376Z,13.60
2019-03-06T01:20:15.770Z,13.10
2019-03-06T01:25:23.355Z,15.53
2019-03-06T01:30:34.289Z,14.30
2019-03-06T01:35:48.435Z,17.57
2019-03-06T01:41:00.074Z,18.23
2019-03-06T01:46:06.939Z,14.67
2019-03-06T01:51:13.773Z,14.93
2019-03-06T01:56:20.144Z,15.27
2019-03-06T02:01:27.123Z,13.90
2019-03-06T02:06:35.844Z,15.93
2019-03-06T02:11:47.886Z,16.83
2019-03-06T02:16:55.964Z,15.47
2019-03-06T02:22:02.890Z,13.93
2019-03-06T02:27:11.149Z,16.67
2019-03-06T02:32:24.310Z,21.13
2019-03-06T02:37:34.806Z,15.30
2019-03-06T02:42:42.901Z,23.13
2019-03-06T02:47:50.384Z,18.40
2019-03-06T02:52:57.223Z,19.47
2019-03-06T02:58:22.624Z,18.10
2019-03-06T03:03:35.025Z,15.80
2019-03-06T03:08:43.061Z,20.33
2019-03-06T03:13:54.499Z,18.20
2019-03-06T03:19:03.272Z,20.90
2019-03-06T03:24:15.264Z,19.17
2019-03-06T03:29:21.646Z,21.43
2019-03-06T03:34:31.020Z,18.77
2019-03-06T03:39:36.656Z,18.93
2019-03-06T03:44:42.836Z,22.50
2019-03-06T03:49:50.580Z,19.33
2019-03-06T03:54:57.176Z,22.00
2019-03-06T04:00:08.478Z,19.57
2019-03-06T04:05:15.261Z,20.23
2019-03-06T04:10:23.249Z,22.87
2019-03-06T04:15:29.189Z,17.63
2019-03-06T04:20:36.244Z,18.40
2019-03-06T04:25:42.785Z,20.07
2019-03-06T04:30:50.266Z,20.57
2019-03-06T04:35:56.262Z,18.87
2019-03-06T04:41:03.602Z,18.07
2019-03-06T04:46:10.386Z,19.77
2019-03-06T04:51:18.054Z,22.73
2019-03-06T04:56:24.595Z,19.30
2019-03-06T05:01:31.666Z,19.70
2019-03-06T05:06:40.286Z,20.97
2019-03-06T05:11:46.345Z,18.40
2019-03-06T05:17:10.737Z,18.77
2019-03-06T05:22:16.948Z,17.50
2019-03-06T05:27:24.178Z,18.07
2019-03-06T05:32:31.891Z,18.37
2019-03-06T05:37:51.906Z,20.43
2019-03-06T05:43:00.423Z,19.20
2019-03-06T05:48:07.997Z,20.17
2019-03-06T05:53:14.922Z,20.67
2019-03-06T05:58:22.376Z,23.67
2019-03-06T06:03:28.674Z,22.17
2019-03-06T06:08:34.712Z,22.33
2019-03-06T06:13:40.693Z,22.27
2019-03-06T06:18:46.270Z,21.10
2019-03-06T06:23:56.301Z,21.13
2019-03-06T06:29:02.211Z,25.37
2019-03-06T06:34:07.971Z,21.83
2019-03-06T06:39:14.863Z,22.10
2019-03-06T06:44:20.799Z,20.80
2019-03-06T06:49:27.107Z,20.47
2019-03-06T06:54:52.184Z,20.23
2019-03-06T07:00:16.655Z,21.23
2019-03-06T07:05:36.179Z,18.77
2019-03-06T07:10:43.722Z,19.13
2019-03-06T07:16:08.580Z,19.47
2019-03-06T07:21:18.977Z,19.70
2019-03-06T07:26:43.184Z,18.80
2019-03-06T07:31:52.797Z,17.73
2019-03-06T07:37:03.828Z,15.93
2019-03-06T07:42:27.043Z,19.13
2019-03-06T07:47:46.576Z,14.63
2019-03-06T07:53:30.590Z,18.50
2019-03-06T07:58:48.865Z,14.33
2019-03-06T08:03:59.228Z,17.00
2019-03-06T08:09:08.605Z,18.30
2019-03-06T08:14:33.238Z,15.13
2019-03-06T08:20:00.051Z,14.57
2019-03-06T08:25:09.942Z,13.90
2019-03-06T08:30:16.355Z,18.97
2019-03-06T08:35:22.487Z,13.53
2019-03-06T08:40:28.133Z,13.33
2019-03-06T08:45:45.407Z,12.80
2019-03-06T08:50:52.644Z,11.43
2019-03-06T08:56:10.305Z,12.97
2019-03-06T09:01:42.135Z,13.77
2019-03-06T09:07:05.961Z,13.43
2019-03-06T09:12:16.805Z,13.63
2019-03-06T09:17:37.258Z,14.50
2019-03-06T09:22:44.911Z,13.93
2019-03-06T09:27:55.276Z,14.73
2019-03-06T09:33:12.222Z,14.90
2019-03-06T09:38:35.826Z,13.13
2019-03-06T09:43:52.534Z,13.73
2019-03-06T09:49:10.883Z,12.03
2019-03-06T09:54:20.240Z,12.67
2019-03-06T09:59:36.764Z,12.07
2019-03-06T10:04:44.189Z,12.67
2019-03-06T10:09:59.081Z,10.73
2019-03-06T10:15:03.875Z,11.07
2019-03-06T10:20:14.539Z,15.53
2019-03-06T10:25:29.819Z,13.07
2019-03-06T10:30:29.835Z,11.27
2019-03-06T10:35:36.003Z,11.30
2019-03-06T10:40:41.832Z,10.87
2019-03-06T10:45:47.732Z,11.33
2019-03-06T10:50:53.779Z,9.60
2019-03-06T10:55:59.821Z,9.97
2019-03-06T11:01:06.732Z,12.93
2019-03-06T11:06:13.372Z,10.47
2019-03-06T11:11:19.237Z,9.93
2019-03-06T11:16:26.545Z,10.00
2019-03-06T11:21:33.127Z,9.70
2019-03-06T11:26:39.455Z,9.33
2019-03-06T11:31:45.547Z,8.23
2019-03-06T11:36:51.728Z,8.87
2019-03-06T11:42:00.138Z,7.43
2019-03-06T11:47:07.546Z,6.90
2019-03-06T11:52:13.840Z,8.63
2019-03-06T11:57:20.502Z,8.17
2019-03-06T12:02:26.857Z,9.53
2019-03-06T12:07:33.235Z,6.23
2019-03-06T12:12:39.877Z,7.93
2019-03-06T12:17:47.405Z,6.33
2019-03-06T12:22:53.688Z,10.60
2019-03-06T12:28:00.584Z,10.53
2019-03-06T12:33:07.199Z,8.10
2019-03-06T12:38:13.679Z,7.17
2019-03-06T12:43:20.445Z,9.83
2019-03-06T12:48:26.924Z,7.73
2019-03-06T12:53:32.976Z,7.03
2019-03-06T12:58:43.886Z,6.10
2019-03-06T13:03:49.620Z,7.93
2019-03-06T13:08:56.942Z,5.83
2019-03-06T13:14:03.479Z,8.73
2019-03-06T13:19:09.640Z,5.77
2019-03-06T13:24:16.586Z,6.07
2019-03-06T13:29:22.822Z,8.13
2019-03-06T13:34:31.090Z,10.03
2019-03-06T13:39:38.114Z,6.47
2019-03-06T13:44:44.023Z,5.43
2019-03-06T13:49:50.498Z,5.40
2019-03-06T13:54:56.301Z,6.77
2019-03-06T14:00:02.634Z,7.93
2019-03-06T14:05:09.526Z,4.83
2019-03-06T14:10:23.792Z,7.93
2019-03-06T14:15:32.854Z,6.23
2019-03-06T14:20:38.558Z,6.23
2019-03-06T14:25:44.735Z,6.30
2019-03-06T14:30:50.562Z,5.90
2019-03-06T14:35:57.720Z,6.07
2019-03-06T14:41:04.485Z,5.80
2019-03-06T14:46:16.444Z,5.87
2019-03-06T14:51:19.168Z,7.50
2019-03-06T14:56:25.598Z,7.70
2019-03-06T15:01:32.129Z,10.47
2019-03-06T15:06:38.337Z,9.83
2019-03-06T15:11:44.988Z,8.60
2019-03-06T15:16:51.765Z,6.87
2019-03-06T15:21:57.824Z,8.30
2019-03-06T15:27:03.743Z,9.03
2019-03-06T15:32:11.000Z,6.90
2019-03-06T15:37:17.457Z,9.10
2019-03-06T15:42:25.049Z,12.63
2019-03-06T15:47:33.899Z,8.43
2019-03-06T15:52:43.699Z,9.10
2019-03-06T15:57:49.846Z,8.80
2019-03-06T16:02:58.465Z,7.83
2019-03-06T16:08:08.618Z,6.53
2019-03-06T16:13:15.292Z,10.23
2019-03-06T16:18:20.846Z,8.67
2019-03-06T16:23:29.278Z,9.20
2019-03-06T16:28:37.611Z,9.37
2019-03-06T16:33:44.173Z,10.43
2019-03-06T16:38:50.629Z,10.43
2019-03-06T16:43:58.705Z,14.27
2019-03-06T16:49:04.970Z,16.73
2019-03-06T16:54:10.877Z,13.87
2019-03-06T16:59:16.873Z,15.13
2019-03-06T17:04:23.045Z,14.30
2019-03-06T17:09:29.569Z,13.30
2019-03-06T17:14:35.986Z,13.87
2019-03-06T17:19:42.552Z,13.17
2019-03-06T17:24:48.414Z,11.80
2019-03-06T17:29:56.164Z,12.00
2019-03-06T17:35:03.179Z,15.23
2019-03-06T17:40:12.590Z,14.63
2019-03-06T17:45:18.802Z,11.97
2019-03-06T17:50:26.007Z,10.83
2019-03-06T17:55:32.392Z,11.37
2019-03-06T18:00:42.780Z,14.33
2019-03-06T18:05:49.699Z,11.07
2019-03-06T18:10:56.692Z,11.77
2019-03-06T18:16:03.100Z,20.43
2019-03-06T18:21:09.419Z,14.80
2019-03-06T18:26:15.966Z,10.27
2019-03-06T18:31:22.274Z,12.83
2019-03-06T18:36:28.533Z,10.57
2019-03-06T18:41:34.964Z,13.53
2019-03-06T18:46:41.143Z,11.40
2019-03-06T18:51:46.888Z,13.77
2019-03-06T18:56:54.387Z,13.50
2019-03-06T19:02:00.233Z,9.60
2019-03-06T19:07:06.726Z,9.87
2019-03-06T19:12:12.274Z,12.93
2019-03-06T19:17:20.119Z,12.10
2019-03-06T19:22:25.782Z,8.23
2019-03-06T19:27:31.872Z,12.20
2019-03-06T19:32:38.037Z,7.77
2019-03-06T19:37:43.657Z,8.70
2019-03-06T19:42:49.211Z,8.43
2019-03-06T19:47:55.643Z,10.93
2019-03-06T19:53:01.781Z,7.93
2019-03-06T19:58:10.863Z,8.77
2019-03-06T20:03:19.823Z,9.27
2019-03-06T20:08:25.583Z,9.80
2019-03-06T20:13:31.971Z,10.83
2019-03-06T20:18:37.987Z,8.23
2019-03-06T20:23:43.682Z,9.80
2019-03-06T20:28:49.468Z,9.10
2019-03-06T20:33:55.184Z,8.33
2019-03-06T20:39:01.112Z,9.47
2019-03-06T20:44:09.855Z,10.00
2019-03-06T20:49:16.191Z,7.47
2019-03-06T20:54:22.436Z,7.33
2019-03-06T20:59:28.302Z,10.93
2019-03-06T21:04:34.156Z,8.07
2019-03-06T21:09:39.983Z,9.20
2019-03-06T21:14:45.538Z,10.03
2019-03-06T21:19:52.406Z,8.70
2019-03-06T21:24:58.363Z,9.37
2019-03-06T21:30:11.280Z,8.50
2019-03-06T21:35:17.648Z,7.70
2019-03-06T21:40:24.953Z,9.30
2019-03-06T21:45:33.727Z,6.90
2019-03-06T21:50:39.023Z,6.83
2019-03-06T21:55:45.088Z,10.07
2019-03-06T22:00:51.809Z,9.43
2019-03-06T22:05:57.464Z,8.57
2019-03-06T22:11:03.371Z,8.37
2019-03-06T22:16:09.274Z,9.23
2019-03-06T22:21:15.170Z,8.90
2019-03-06T22:26:22.135Z,10.37
2019-03-06T22:31:28.222Z,10.50
2019-03-06T22:36:34.704Z,7.40
2019-03-06T22:41:40.653Z,8.33
2019-03-06T22:46:46.205Z,8.57
2019-03-06T22:51:53.552Z,7.73
2019-03-06T22:56:59.436Z,8.20
2019-03-06T23:02:06.311Z,7.63
2019-03-06T23:07:12.352Z,6.87
2019-03-06T23:12:18.532Z,7.93
2019-03-06T23:17:24.102Z,7.23
2019-03-06T23:22:29.865Z,8.17
2019-03-06T23:27:36.183Z,7.33
2019-03-06T23:32:41.923Z,9.53
2019-03-06T23:37:48.650Z,7.17
2019-03-06T23:42:54.466Z,7.97
2019-03-06T23:48:00.666Z,8.07
2019-03-06T23:53:07.374Z,8.13
2019-03-06T23:58:16.615Z,7.10
